createdAt,value
2018-12-13T00:03:20.426Z,1.60
2018-12-13T00:08:22.834Z,1.50
2018-12-13T00:13:25.294Z,1.50
2018-12-13T00:18:27.765Z,1.50
2018-12-13T00:23:30.181Z,1.50
2018-12-13T00:28:32.618Z,1.50
2018-12-13T00:33:35.018Z,1.40
2018-12-13T00:38:38.321Z,1.40
2018-12-13T00:43:40.798Z,1.40
2018-12-13T00:48:43.206Z,1.40
2018-12-13T00:53:45.614Z,1.40
2018-12-13T00:58:48.032Z,1.30
2018-12-13T01:03:50.434Z,1.40
2018-12-13T01:08:52.854Z,1.30
2018-12-13T01:13:55.326Z,1.30
2018-12-13T01:18:57.730Z,1.30
2018-12-13T01:24:00.145Z,1.30
2018-12-13T01:29:02.551Z,1.30
2018-12-13T01:34:05.018Z,1.20
2018-12-13T01:39:07.490Z,1.20
2018-12-13T01:44:09.915Z,1.20
2018-12-13T01:49:12.310Z,1.20
2018-12-13T01:54:14.727Z,1.10
2018-12-13T01:59:17.253Z,1.10
2018-12-13T02:04:19.693Z,1.10
2018-12-13T02:09:22.170Z,1.00
2018-12-13T02:14:24.586Z,1.00
2018-12-13T02:19:27.074Z,1.00
2018-12-13T02:24:29.521Z,1.00
2018-12-13T02:29:32.008Z,0.90
2018-12-13T02:34:34.414Z,0.90
2018-12-13T02:39:36.824Z,0.90
2018-12-13T02:44:39.303Z,0.80
2018-12-13T02:49:41.737Z,0.80
2018-12-13T02:54:44.220Z,0.80
2018-12-13T02:59:46.614Z,0.80
2018-12-13T03:04:49.164Z,0.80
2018-12-13T03:09:51.651Z,0.70
2018-12-13T03:14:54.204Z,0.70
2018-12-13T03:19:56.646Z,0.70
2018-12-13T03:24:59.149Z,0.70
2018-12-13T03:30:01.590Z,0.70
2018-12-13T03:35:04.431Z,0.60
2018-12-13T03:40:07.008Z,0.60
2018-12-13T03:45:09.518Z,0.60
2018-12-13T03:50:11.962Z,0.60
2018-12-13T03:55:14.370Z,0.50
2018-12-13T04:00:16.837Z,0.50
2018-12-13T04:05:19.255Z,0.50
2018-12-13T04:10:21.714Z,0.40
2018-12-13T04:15:24.122Z,0.40
2018-12-13T04:20:26.598Z,0.40
2018-12-13T04:25:29.039Z,0.30
2018-12-13T04:30:31.514Z,0.30
2018-12-13T04:35:33.993Z,0.30
2018-12-13T04:40:36.471Z,0.20
2018-12-13T04:45:38.946Z,0.20
2018-12-13T04:50:41.382Z,0.20
2018-12-13T04:55:43.786Z,0.10
2018-12-13T05:00:46.304Z,0.10
2018-12-13T05:05:48.721Z,0.10
2018-12-13T05:10:51.612Z,0.10
2018-12-13T05:15:54.059Z,0.10
2018-12-13T05:20:56.509Z,0.10
2018-12-13T05:25:58.928Z,0.10
2018-12-13T05:31:01.491Z,0.10
2018-12-13T05:36:04.035Z,0.10
2018-12-13T05:41:06.474Z,0.10
2018-12-13T05:46:08.982Z,0.10
2018-12-13T05:51:11.403Z,0.20
2018-12-13T05:56:13.891Z,0.20
2018-12-13T06:01:16.641Z,0.20
2018-12-13T06:11:32.054Z,0.20
2018-12-13T06:16:34.458Z,0.20
2018-12-13T06:21:37.211Z,0.20
2018-12-13T06:26:39.758Z,0.20
2018-12-13T06:31:42.267Z,0.20
2018-12-13T06:36:44.676Z,0.20
2018-12-13T06:41:47.192Z,0.20
2018-12-13T06:46:49.666Z,0.20
2018-12-13T06:51:52.142Z,0.20
2018-12-13T06:56:54.546Z,0.20
2018-12-13T07:01:56.954Z,0.20
2018-12-13T07:06:59.395Z,0.20
2018-12-13T07:12:01.814Z,0.20
2018-12-13T07:17:04.263Z,0.20
2018-12-13T07:22:06.766Z,0.30
2018-12-13T07:27:09.186Z,0.30
2018-12-13T07:32:11.609Z,0.30
2018-12-13T07:37:14.092Z,0.30
2018-12-13T07:42:16.569Z,0.30
2018-12-13T07:47:18.982Z,0.30
2018-12-13T07:52:21.385Z,0.30
2018-12-13T07:57:23.876Z,0.30
2018-12-13T08:02:26.348Z,0.30
2018-12-13T08:07:28.754Z,0.30
2018-12-13T08:12:31.174Z,0.30
2018-12-13T08:17:33.622Z,0.30
2018-12-13T08:22:36.030Z,0.40
2018-12-13T08:27:38.475Z,0.40
2018-12-13T08:32:40.882Z,0.40
2018-12-13T08:37:43.305Z,0.50
2018-12-13T08:42:45.714Z,0.50
2018-12-13T08:47:48.114Z,0.50
2018-12-13T08:52:50.522Z,0.70
2018-12-13T08:57:52.927Z,0.80
2018-12-13T09:02:55.331Z,1.00
2018-12-13T09:07:57.805Z,1.20
2018-12-13T09:13:00.217Z,1.40
2018-12-13T09:18:02.622Z,1.60
2018-12-13T09:23:05.179Z,1.70
2018-12-13T09:28:07.660Z,1.80
2018-12-13T09:33:10.138Z,1.80
2018-12-13T09:38:12.542Z,1.80
2018-12-13T09:43:14.958Z,1.80
2018-12-13T09:48:17.379Z,1.80
2018-12-13T09:53:19.863Z,1.80
2018-12-13T09:58:22.273Z,1.80
2018-12-13T10:03:24.759Z,1.80
2018-12-13T10:08:27.201Z,1.80
2018-12-13T10:13:29.683Z,1.80
2018-12-13T10:18:32.090Z,1.80
2018-12-13T10:23:34.545Z,1.80
2018-12-13T10:28:36.958Z,1.80
2018-12-13T10:33:39.367Z,1.80
2018-12-13T10:38:41.871Z,1.90
2018-12-13T10:43:44.358Z,1.90
2018-12-13T10:48:46.799Z,1.90
2018-12-13T10:53:49.212Z,1.90
2018-12-13T10:58:51.646Z,1.90
2018-12-13T11:03:54.058Z,1.90
2018-12-13T11:08:59.549Z,2.00
2018-12-13T11:14:01.258Z,2.00
2018-12-13T11:19:03.740Z,2.00
2018-12-13T11:24:06.248Z,2.00
2018-12-13T11:29:20.643Z,2.00
2018-12-13T11:34:23.064Z,2.00
2018-12-13T11:39:25.518Z,2.00
2018-12-13T11:44:28.023Z,2.00
2018-12-13T11:49:30.457Z,2.00
2018-12-13T11:54:34.511Z,2.00
2018-12-13T11:59:36.991Z,2.00
2018-12-13T12:04:39.442Z,2.00
2018-12-13T12:09:41.923Z,2.00
2018-12-13T12:14:44.338Z,2.10
2018-12-13T12:19:46.832Z,2.10
2018-12-13T12:24:49.251Z,2.10
2018-12-13T12:29:51.671Z,2.10
2018-12-13T12:34:54.098Z,2.10
2018-12-13T12:39:56.505Z,2.10
2018-12-13T12:44:58.915Z,2.00
2018-12-13T12:50:01.362Z,2.00
2018-12-13T12:55:03.843Z,2.00
2018-12-13T13:00:07.533Z,2.00
2018-12-13T13:05:09.972Z,2.00
2018-12-13T13:10:12.390Z,1.90
2018-12-13T13:15:14.830Z,1.90
2018-12-13T13:20:17.245Z,1.90
2018-12-13T13:25:19.727Z,1.90
2018-12-13T13:30:22.130Z,1.90
2018-12-13T13:35:24.638Z,1.90
2018-12-13T13:40:27.079Z,1.80
2018-12-13T13:45:29.487Z,1.80
2018-12-13T13:50:31.949Z,1.80
2018-12-13T13:55:34.459Z,1.80
2018-12-13T14:00:36.879Z,1.80
2018-12-13T14:05:39.390Z,1.80
2018-12-13T14:10:41.810Z,1.70
2018-12-13T14:15:44.209Z,1.70
2018-12-13T14:20:46.690Z,1.70
2018-12-13T14:25:49.103Z,1.70
2018-12-13T14:30:51.542Z,1.60
2018-12-13T14:35:54.018Z,1.60
2018-12-13T14:40:56.494Z,1.50
2018-12-13T14:45:58.965Z,1.50
2018-12-13T14:51:01.447Z,1.50
2018-12-13T14:56:03.898Z,1.40
2018-12-13T15:01:06.369Z,1.40
2018-12-13T15:06:08.782Z,1.40
2018-12-13T15:11:11.292Z,1.40
2018-12-13T15:16:13.714Z,1.40
2018-12-13T15:21:16.122Z,1.40
2018-12-13T15:26:18.567Z,1.30
2018-12-13T15:31:21.052Z,1.20
2018-12-13T15:36:23.463Z,1.20
2018-12-13T15:41:25.874Z,1.20
2018-12-13T15:46:28.285Z,1.20
2018-12-13T15:51:30.690Z,1.10
2018-12-13T15:56:33.102Z,1.10
2018-12-13T16:01:35.529Z,1.10
2018-12-13T16:06:38.018Z,1.10
2018-12-13T16:11:40.419Z,1.10
2018-12-13T16:16:42.832Z,1.00
2018-12-13T16:21:45.313Z,1.00
2018-12-13T16:26:47.834Z,1.00
2018-12-13T16:31:50.343Z,1.00
2018-12-13T16:36:52.798Z,0.90
2018-12-13T16:41:55.307Z,0.90
2018-12-13T16:46:57.726Z,0.90
2018-12-13T16:52:00.126Z,0.90
2018-12-13T16:57:02.534Z,0.80
2018-12-13T17:02:05.011Z,0.90
2018-12-13T17:07:07.423Z,0.80
2018-12-13T17:12:09.838Z,0.80
2018-12-13T17:17:12.290Z,0.80
2018-12-13T17:22:14.709Z,0.80
2018-12-13T17:27:17.202Z,0.80
2018-12-13T17:32:19.678Z,0.80
2018-12-13T17:37:22.090Z,0.80
2018-12-13T17:42:24.494Z,0.70
2018-12-13T17:47:26.936Z,0.70
2018-12-13T17:52:29.419Z,0.70
2018-12-13T18:02:41.379Z,0.70
2018-12-13T18:07:43.837Z,0.70
2018-12-13T18:12:46.324Z,0.70
2018-12-13T18:17:49.050Z,0.60
2018-12-13T18:22:51.454Z,0.60
2018-12-13T18:27:53.967Z,0.60
2018-12-13T18:32:56.448Z,0.60
2018-12-13T18:37:59.037Z,0.60
2018-12-13T18:43:01.692Z,0.60
2018-12-13T18:48:04.226Z,0.60
2018-12-13T18:53:07.058Z,0.50
2018-12-13T18:58:09.632Z,0.60
2018-12-13T19:03:12.114Z,0.60
2018-12-13T19:08:14.527Z,0.50
2018-12-13T19:13:16.975Z,0.50
2018-12-13T19:18:19.377Z,0.50
2018-12-13T19:23:21.787Z,0.50
2018-12-13T19:28:24.283Z,0.50
2018-12-13T19:33:26.708Z,0.50
2018-12-13T19:38:29.147Z,0.50
2018-12-13T19:43:31.641Z,0.50
2018-12-13T19:48:34.083Z,0.50
2018-12-13T19:53:36.588Z,0.50
2018-12-13T19:58:39.124Z,0.40
2018-12-13T20:03:41.614Z,0.40
2018-12-13T20:08:44.123Z,0.40
2018-12-13T20:13:46.612Z,0.40
2018-12-13T20:18:49.098Z,0.40
2018-12-13T20:23:51.497Z,0.40
2018-12-13T20:28:53.979Z,0.40
2018-12-13T20:33:56.392Z,0.40
2018-12-13T20:38:58.836Z,0.40
2018-12-13T20:44:01.382Z,0.40
2018-12-13T20:49:03.889Z,0.40
2018-12-13T20:54:06.330Z,0.40
2018-12-13T20:59:08.846Z,0.40
2018-12-13T21:04:11.499Z,0.40
2018-12-13T21:09:13.983Z,0.40
2018-12-13T21:14:16.571Z,0.30
2018-12-13T21:19:19.030Z,0.30
2018-12-13T21:24:21.454Z,0.40
2018-12-13T21:29:23.895Z,0.30
2018-12-13T21:34:26.347Z,0.30
2018-12-13T21:39:28.826Z,0.30
2018-12-13T21:44:31.342Z,0.30
2018-12-13T21:49:34.948Z,0.30
2018-12-13T21:54:37.456Z,0.30
2018-12-13T21:59:39.968Z,0.30
2018-12-13T22:04:42.438Z,0.30
2018-12-13T22:09:44.865Z,0.30
2018-12-13T22:14:47.319Z,0.30
2018-12-13T22:19:49.775Z,0.30
2018-12-13T22:24:52.230Z,0.30
2018-12-13T22:29:54.667Z,0.30
2018-12-13T22:34:57.129Z,0.30
2018-12-13T22:39:59.574Z,0.30
2018-12-13T22:45:02.113Z,0.20
2018-12-13T22:50:04.746Z,0.20
2018-12-13T22:55:07.472Z,0.20
2018-12-13T23:00:10.460Z,0.20
2018-12-13T23:05:12.944Z,0.20
2018-12-13T23:10:15.396Z,0.20
2018-12-13T23:15:17.859Z,0.20
2018-12-13T23:20:20.242Z,0.20
2018-12-13T23:25:22.657Z,0.20
2018-12-13T23:30:25.170Z,0.20
2018-12-13T23:35:27.624Z,0.20
2018-12-13T23:40:30.086Z,0.20
2018-12-13T23:45:32.505Z,0.20
2018-12-13T23:50:34.979Z,0.20
2018-12-13T23:55:37.382Z,0.20
